BrusseLS Bridge — 3FSZ4 — position and weather

sailwx.info

Track history (hours):
 
Tides and Currents Weather Stations Pressure Air Temp Water Temp Dewpoint Dewpoint Depression Visibility Wind Speed Wind Dir Waves Ship Positions

BrusseLS Bridge

Last reported at 2018-Aug-17 05:19 UTC. Time now 2018-Aug-19 22:50 UTC.
Position N 41°05' W 130°21'.

Length 267 m; draft 9.3 m.

Type: Cargo ship. MMSI: 354362000.

Date/timePositionNaut miles runAvg speedWind from/ knotsBaromVisibWave heightAir tempDewpointWater temp
2018-Aug-17 05:19N 41°05' W 130°21'3615.9
2018-Aug-17 03:03N 40°41' W 129°45'1316.0
2018-Aug-17 02:15N 40°32' W 129°33'416.0
2018-Aug-17 01:59N 40°29' W 129°29'4515.8
2018-Aug-16 23:08N 40°00' W 128°44'215.8
2018-Aug-16 22:59N 39°59' W 128°41'22016.1
2018-Aug-16 09:17N 38°30' W 124°21'415.4
2018-Aug-16 09:00N 38°28' W 124°16'815.1
2018-Aug-16 08:30N 38°25' W 124°07'815.1
2018-Aug-16 08:00N 38°22' W 123°58'815.6
2018-Aug-16 07:30N 38°20' W 123°49'815.8
2018-Aug-16 07:00N 38°16' W 123°40'815.7
2018-Aug-16 06:30N 38°13' W 123°31'815.6
2018-Aug-16 06:00N 38°10' W 123°22'510.0
2018-Aug-16 05:30N 38°06' W 123°17'5 9.6
2018-Aug-16 05:00N 38°03' W 123°13'5 9.7
2018-Aug-16 04:29N 37°59' W 123°08'4 9.4
2018-Aug-16 04:00N 37°57' W 123°04'5 9.8
2018-Aug-16 03:30N 37°54' W 122°58'5 9.9
2018-Aug-16 03:00N 37°52' W 122°53'5 9.7
2018-Aug-16 02:30N 37°49' W 122°48'5 9.6
2018-Aug-16 02:00N 37°47' W 122°42'5 9.2
2018-Aug-16 01:30N 37°46' W 122°37'815.5
2018-Aug-16 01:00N 37°50' W 122°28'611.5
2018-Aug-16 00:30N 37°48' W 122°21'1 1.7
2018-Aug-15 23:59N 37°49' W 122°20'0 0.0
2018-Aug-15 23:26N 37°49' W 122°20'0 0.0
2018-Aug-15 22:59N 37°49' W 122°20'0 0.0
2018-Aug-15 22:26N 37°49' W 122°20'0 0.0
2018-Aug-15 21:56N 37°49' W 122°20'0 0.0
2018-Aug-15 21:26N 37°49' W 122°20'0 0.0
2018-Aug-15 20:56N 37°49' W 122°20'0 0.0
2018-Aug-15 20:29N 37°49' W 122°20'0 0.0
2018-Aug-15 19:56N 37°49' W 122°20'0 0.0
2018-Aug-15 19:26N 37°49' W 122°20'0 0.0
2018-Aug-15 18:56N 37°49' W 122°20'0 0.0
2018-Aug-15 18:29N 37°49' W 122°20'0 0.0
2018-Aug-15 17:59N 37°49' W 122°20'0 0.0
2018-Aug-15 17:26N 37°49' W 122°20'0 0.0
2018-Aug-15 16:59N 37°49' W 122°20'0 0.0
2018-Aug-15 16:20N 37°49' W 122°20'0 0.0
2018-Aug-15 15:56N 37°49' W 122°20'0 0.0
2018-Aug-15 15:29N 37°49' W 122°20'0 0.0
2018-Aug-15 14:59N 37°49' W 122°20'0 0.0
2018-Aug-15 14:29N 37°49' W 122°20'0 0.0
2018-Aug-15 13:59N 37°49' W 122°20'0 0.0
2018-Aug-15 13:29N 37°49' W 122°20'0 0.0
2018-Aug-15 12:59N 37°49' W 122°20'0 0.0
2018-Aug-15 12:29N 37°49' W 122°20'0 0.0
2018-Aug-15 11:59N 37°49' W 122°20'0 0.0
2018-Aug-15 11:29N 37°49' W 122°20'0 0.0
2018-Aug-15 10:59N 37°49' W 122°20'0 0.0
2018-Aug-15 10:26N 37°49' W 122°20'0 0.0
2018-Aug-15 09:59N 37°49' W 122°20'0 0.0
2018-Aug-15 09:29N 37°49' W 122°20'0 0.0
2018-Aug-15 08:59N 37°49' W 122°20'0 0.0
2018-Aug-15 08:26N 37°49' W 122°20'0 0.0
2018-Aug-15 07:56N 37°49' W 122°20'0 0.0
2018-Aug-15 07:29N 37°49' W 122°20'0 0.0
2018-Aug-15 06:56N 37°49' W 122°20'0 0.0
2018-Aug-15 06:29N 37°49' W 122°20'0 0.0
2018-Aug-15 05:59N 37°49' W 122°20'0 0.0
2018-Aug-15 05:29N 37°49' W 122°20'0 0.0
2018-Aug-15 04:56N 37°49' W 122°20'0 0.0
2018-Aug-15 04:26N 37°49' W 122°20'0 0.0
2018-Aug-15 03:53N 37°49' W 122°20'0 0.0
2018-Aug-15 03:29N 37°49' W 122°20'0 0.0
2018-Aug-15 02:59N 37°49' W 122°20'0 0.0
2018-Aug-15 02:29N 37°49' W 122°20'0 0.0
2018-Aug-15 01:53N 37°49' W 122°20'0 0.0
2018-Aug-15 01:29N 37°49' W 122°20'0 0.0
2018-Aug-15 00:56N 37°49' W 122°20'0 0.0
2018-Aug-15 00:26N 37°49' W 122°20'0 0.0
2018-Aug-14 23:56N 37°49' W 122°20'0 0.0
2018-Aug-14 23:29N 37°49' W 122°20'0 0.0
2018-Aug-14 22:59N 37°49' W 122°20'0 0.0
2018-Aug-14 22:30N 37°49' W 122°20'2 4.6
2018-Aug-14 22:00N 37°49' W 122°23'714.7
2018-Aug-14 21:30N 37°48' W 122°32'815.0
2018-Aug-14 21:00N 37°45' W 122°41'5 9.2
2018-Aug-14 20:30N 37°40' W 122°40'5 9.4
2018-Aug-14 20:00N 37°35' W 122°39'5 9.9
2018-Aug-14 19:30N 37°30' W 122°39'5 9.5
2018-Aug-14 19:00N 37°26' W 122°39'5 9.5
2018-Aug-14 18:30N 37°21' W 122°39'510.2
2018-Aug-14 18:00N 37°16' W 122°40'2 4.2
2018-Aug-14 17:30N 37°14' W 122°39'611.7
2018-Aug-14 17:00N 37°08' W 122°39'714.4
2018-Aug-14 16:30N 37°01' W 122°39'714.2
2018-Aug-14 16:01N 36°54' W 122°38'713.8
2018-Aug-14 15:30N 36°47' W 122°38'612.0
2018-Aug-14 14:59N 36°41' W 122°38'611.4
2018-Aug-14 14:30N 36°35' W 122°35'611.9
2018-Aug-14 14:00N 36°30' W 122°32'612.4
2018-Aug-14 13:30N 36°24' W 122°29'612.3
2018-Aug-14 12:59N 36°19' W 122°26'612.0
2018-Aug-14 12:30N 36°13' W 122°23'911.6
2018-Aug-14 11:45N 36°05' W 122°19'411.1
2018-Aug-14 11:24N 36°02' W 122°17'511.0
2018-Aug-14 10:57N 35°57' W 122°14'511.0
2018-Aug-14 10:27N 35°52' W 122°11'511.4
2018-Aug-14 10:01N 35°48' W 122°07'611.9
2018-Aug-14 09:29N 35°43' W 122°02'911.8
2018-Aug-14 08:43N 35°36' W 121°56'311.9
2018-Aug-14 08:29N 35°34' W 121°54'611.9
2018-Aug-14 08:00N 35°29' W 121°49'612.2
2018-Aug-14 07:30N 35°24' W 121°45'611.9
2018-Aug-14 07:00N 35°20' W 121°40'611.5
2018-Aug-14 06:30N 35°15' W 121°36'611.7
2018-Aug-14 06:01N 35°10' W 121°32'611.4
2018-Aug-14 05:30N 35°06' W 121°28'611.6
2018-Aug-14 05:00N 35°01' W 121°23'611.8
2018-Aug-14 04:30N 34°56' W 121°19'611.8
2018-Aug-14 04:01N 34°52' W 121°15'611.4
2018-Aug-14 03:30N 34°47' W 121°11'611.7
2018-Aug-14 03:00N 34°42' W 121°06'611.8
2018-Aug-14 02:31N 34°38' W 121°02'611.1
2018-Aug-14 02:01N 34°33' W 120°58'611.2
2018-Aug-14 01:30N 34°29' W 120°54'510.8
2018-Aug-14 01:00N 34°26' W 120°48'611.9
2018-Aug-14 00:30N 34°24' W 120°41'611.7
2018-Aug-14 00:00N 34°22' W 120°35'611.8
2018-Aug-13 23:29N 34°21' W 120°27'611.9
2018-Aug-13 23:00N 34°19' W 120°21'611.6
2018-Aug-13 22:29N 34°18' W 120°14'612.1
2018-Aug-13 21:59N 34°16' W 120°07'612.2
2018-Aug-13 21:30N 34°15' W 119°60'611.7
2018-Aug-13 21:00N 34°13' W 119°53'612.1
2018-Aug-13 20:30N 34°11' W 119°46'612.6
2018-Aug-13 20:00N 34°10' W 119°39'612.9
2018-Aug-13 19:30N 34°08' W 119°31'713.1
2018-Aug-13 19:00N 34°07' W 119°24'613.0
2018-Aug-13 18:31N 34°05' W 119°16'611.8
2018-Aug-13 18:00N 34°02' W 119°10'611.1
2018-Aug-13 17:31N 33°59' W 119°04'611.0
2018-Aug-13 17:00N 33°56' W 118°58'611.1
2018-Aug-13 16:31N 33°54' W 118°52'511.0
2018-Aug-13 16:01N 33°51' W 118°47'611.1
2018-Aug-13 15:30N 33°48' W 118°41'611.1
2018-Aug-13 15:01N 33°45' W 118°35'611.0
2018-Aug-13 14:30N 33°43' W 118°29'511.0
2018-Aug-13 14:01N 33°40' W 118°24'510.9
2018-Aug-13 13:31N 33°38' W 118°18'5 9.9
2018-Aug-13 13:00N 33°39' W 118°12'5 9.1
2018-Aug-13 12:31N 33°44' W 118°11'1 2.3
2018-Aug-13 12:01N 33°45' W 118°12'0 0.4
2018-Aug-13 11:30N 33°45' W 118°12'0 0.0
2018-Aug-13 11:00N 33°45' W 118°12'0 0.0
2018-Aug-13 10:30N 33°45' W 118°12'0 0.0
2018-Aug-13 10:00N 33°45' W 118°12'0 0.0
2018-Aug-13 09:30N 33°45' W 118°12'0 0.0
2018-Aug-13 09:00N 33°45' W 118°12'0 0.0
2018-Aug-13 08:30N 33°45' W 118°12'0 0.1
2018-Aug-13 08:00N 33°45' W 118°12'0 0.0
2018-Aug-13 07:30N 33°45' W 118°12'0 0.0
2018-Aug-13 07:00N 33°45' W 118°12'0 0.0
2018-Aug-13 06:27N 33°45' W 118°12'0 0.0
2018-Aug-13 06:00N 33°45' W 118°12'0 0.1
2018-Aug-13 05:30N 33°45' W 118°12'0 0.0
2018-Aug-13 05:00N 33°45' W 118°12'0 0.0
2018-Aug-13 04:30N 33°45' W 118°12'0 0.0
2018-Aug-13 04:00N 33°45' W 118°12'0 0.0
2018-Aug-13 03:30N 33°45' W 118°12'0 0.0
2018-Aug-13 03:00N 33°45' W 118°12'0 0.0
2018-Aug-13 02:30N 33°45' W 118°12'0 0.1
2018-Aug-13 02:00N 33°45' W 118°12'0 0.1
2018-Aug-13 01:30N 33°45' W 118°12'0 0.0
2018-Aug-13 01:00N 33°45' W 118°12'0 0.0
2018-Aug-13 00:30N 33°45' W 118°12'0 0.0
2018-Aug-13 00:00N 33°45' W 118°12'0 0.0
2018-Aug-12 23:30N 33°45' W 118°12'0 0.1
2018-Aug-12 23:00N 33°45' W 118°12'0 0.1
2018-Aug-12 22:30N 33°45' W 118°12'0 0.0
2018-Aug-12 22:00N 33°45' W 118°12'0 0.0
2018-Aug-12 21:30N 33°45' W 118°12'0 0.0
2018-Aug-12 21:00N 33°45' W 118°12'0 0.0
2018-Aug-12 20:30N 33°45' W 118°12'0 0.1
2018-Aug-12 20:00N 33°45' W 118°12'0 0.1
2018-Aug-12 19:30N 33°45' W 118°12'0 0.0
2018-Aug-12 18:57N 33°45' W 118°12'0 0.0
2018-Aug-12 18:30N 33°45' W 118°12'0 0.0
2018-Aug-12 18:00N 33°45' W 118°12'0 0.0
2018-Aug-12 17:30N 33°45' W 118°12'0 0.0
2018-Aug-12 17:00N 33°45' W 118°12'0 0.0
2018-Aug-12 16:30N 33°45' W 118°12'0 0.1
2018-Aug-12 16:00N 33°45' W 118°12'0 0.0
2018-Aug-12 15:30N 33°45' W 118°12'0 0.1
2018-Aug-12 15:00N 33°45' W 118°12'0 0.1
2018-Aug-12 14:30N 33°45' W 118°12'0 0.1
2018-Aug-12 14:00N 33°45' W 118°12'0 0.0
2018-Aug-12 13:30N 33°45' W 118°12'0 0.0
2018-Aug-12 13:00N 33°45' W 118°12'0 0.0
2018-Aug-12 12:30N 33°45' W 118°12'0 0.0
2018-Aug-12 11:57N 33°45' W 118°12'0 0.1
2018-Aug-12 11:30N 33°45' W 118°12'0 0.0
2018-Aug-12 11:00N 33°45' W 118°12'0 0.0
2018-Aug-12 10:30N 33°45' W 118°12'0 0.0
2018-Aug-12 10:00N 33°45' W 118°12'0 0.1
2018-Aug-12 09:30N 33°45' W 118°12'0 0.0
2018-Aug-12 09:00N 33°45' W 118°12'0 0.1
2018-Aug-12 08:30N 33°45' W 118°12'0 0.0
2018-Aug-12 08:00N 33°45' W 118°12'0 0.1
2018-Aug-12 07:30N 33°45' W 118°12'0 0.1
2018-Aug-12 07:00N 33°45' W 118°12'0 0.0
2018-Aug-12 06:30N 33°45' W 118°12'0 0.0
2018-Aug-12 06:00N 33°45' W 118°12'0 0.0
2018-Aug-12 05:30N 33°45' W 118°12'0 0.1
2018-Aug-12 05:00N 33°45' W 118°12'0 0.0
2018-Aug-12 04:30N 33°45' W 118°12'0 0.0
2018-Aug-12 04:00N 33°45' W 118°12'0 0.0
2018-Aug-12 03:30N 33°45' W 118°12'0 0.0
2018-Aug-12 03:00N 33°45' W 118°12'0 0.0
2018-Aug-12 02:27N 33°45' W 118°12'0 0.1
2018-Aug-12 02:00N 33°45' W 118°12'0 0.0
2018-Aug-12 01:30N 33°45' W 118°12'0 0.1
2018-Aug-12 01:00N 33°45' W 118°12'0 0.0
2018-Aug-12 00:30N 33°45' W 118°12'0 0.0
2018-Aug-12 00:00N 33°45' W 118°12'0 0.1
2018-Aug-11 23:30N 33°45' W 118°12'0 0.0
2018-Aug-11 23:00N 33°45' W 118°12'0 0.1
2018-Aug-11 22:30N 33°45' W 118°12'0 0.0
2018-Aug-11 22:00N 33°45' W 118°12'0 0.0
2018-Aug-11 21:30N 33°45' W 118°12'0 0.0
2018-Aug-11 21:00N 33°45' W 118°12'0 0.0
2018-Aug-11 20:30N 33°45' W 118°12'0 0.0
2018-Aug-11 20:00N 33°45' W 118°12'0 0.0
2018-Aug-11 19:30N 33°45' W 118°12'0 0.0
2018-Aug-11 19:00N 33°45' W 118°12'0 0.0
2018-Aug-11 18:30N 33°45' W 118°12'0 0.0
2018-Aug-11 18:00N 33°45' W 118°12'0 0.0
2018-Aug-11 17:30N 33°45' W 118°12'0 0.0
2018-Aug-11 17:00N 33°45' W 118°12'0 0.0
2018-Aug-11 16:30N 33°45' W 118°12'0 0.0
2018-Aug-11 16:00N 33°45' W 118°12'0 0.0
2018-Aug-11 15:30N 33°45' W 118°12'0 0.0
2018-Aug-11 15:00N 33°45' W 118°12'0 0.0
2018-Aug-11 14:30N 33°45' W 118°12'0 0.0
2018-Aug-11 14:00N 33°45' W 118°12'0 0.0
2018-Aug-11 13:30N 33°45' W 118°12'0 0.0
2018-Aug-11 12:57N 33°45' W 118°12'0 0.0
2018-Aug-11 12:30N 33°45' W 118°12'0 0.0
2018-Aug-11 12:00N 33°45' W 118°12'0 0.0
2018-Aug-11 11:30N 33°45' W 118°12'0 0.0
2018-Aug-11 11:00N 33°45' W 118°12'0 0.0
2018-Aug-11 10:30N 33°45' W 118°12'0 0.0
2018-Aug-11 10:00N 33°45' W 118°12'0 0.0
2018-Aug-11 09:30N 33°45' W 118°12'0 0.0
2018-Aug-11 09:00N 33°45' W 118°12'0 0.0
2018-Aug-11 08:30N 33°45' W 118°12'0 0.0
2018-Aug-11 08:00N 33°45' W 118°12'0 0.0
2018-Aug-11 07:30N 33°45' W 118°12'0 0.0
2018-Aug-11 07:00N 33°45' W 118°12'0 0.0
2018-Aug-11 06:30N 33°45' W 118°12'0 0.0
2018-Aug-11 06:00N 33°45' W 118°12'0 0.0
2018-Aug-11 05:30N 33°45' W 118°12'0 0.0
2018-Aug-11 05:00N 33°45' W 118°12'0 0.0
2018-Aug-11 04:30N 33°45' W 118°12'0 0.0
2018-Aug-11 04:00N 33°45' W 118°12'0 0.0
2018-Aug-11 03:30N 33°45' W 118°12'0 0.0
2018-Aug-11 03:00N 33°45' W 118°12'0 0.0
2018-Aug-11 02:30N 33°45' W 118°12'0 0.0
2018-Aug-11 02:00N 33°45' W 118°12'0 0.0
2018-Aug-11 01:30N 33°45' W 118°12'0 0.0
2018-Aug-11 01:00N 33°45' W 118°12'0 0.0
2018-Aug-11 00:30N 33°45' W 118°12'0 0.0
2018-Aug-11 00:00N 33°45' W 118°12'0 0.1
2018-Aug-10 23:30N 33°45' W 118°12'0 0.1
2018-Aug-10 23:00N 33°45' W 118°12'0 0.0
2018-Aug-10 22:30N 33°45' W 118°12'0 0.0
2018-Aug-10 22:00N 33°45' W 118°12'0 0.0
2018-Aug-10 21:30N 33°45' W 118°12'0 0.0
2018-Aug-10 21:00N 33°45' W 118°12'0 0.1
2018-Aug-10 20:30N 33°45' W 118°12'0 0.1
2018-Aug-10 20:00N 33°45' W 118°12'0 0.0
2018-Aug-10 19:30N 33°45' W 118°12'0 0.0
2018-Aug-10 19:00N 33°45' W 118°12'0 0.0
2018-Aug-10 18:30N 33°45' W 118°12'0 0.0
2018-Aug-10 18:00N 33°45' W 118°12'0 0.0
2018-Aug-10 17:30N 33°45' W 118°12'0 0.0
2018-Aug-10 17:00N 33°45' W 118°12'0 0.0
2018-Aug-10 16:30N 33°45' W 118°12'0 0.0
2018-Aug-10 16:00N 33°45' W 118°12'0 0.0
2018-Aug-10 15:30N 33°45' W 118°12'0 0.0
2018-Aug-10 15:00N 33°45' W 118°12'0 0.0
2018-Aug-10 14:30N 33°45' W 118°12'0 0.0
2018-Aug-10 14:00N 33°45' W 118°12'0 0.0
2018-Aug-10 13:30N 33°45' W 118°12'0 0.0
2018-Aug-10 13:00N 33°45' W 118°12'0 0.0
2018-Aug-10 12:30N 33°45' W 118°12'0 0.3
2018-Aug-10 12:00N 33°45' W 118°12'3 5.9
2018-Aug-10 11:30N 33°42' W 118°11'5 9.5
2018-Aug-10 11:00N 33°37' W 118°13'5 9.3
2018-Aug-10 10:30N 33°36' W 118°18'510.6
2018-Aug-10 10:00N 33°38' W 118°24'611.4
2018-Aug-10 09:30N 33°40' W 118°30'611.2
2018-Aug-10 09:00N 33°43' W 118°36'611.4
2018-Aug-10 08:30N 33°46' W 118°42'611.2
2018-Aug-10 08:00N 33°49' W 118°48'611.2
2018-Aug-10 07:30N 33°52' W 118°54'611.3
2018-Aug-10 07:00N 33°54' W 118°60'611.3
2018-Aug-10 06:30N 33°57' W 119°06'611.5
2018-Aug-10 06:00N 34°00' W 119°12'611.5
2018-Aug-10 05:30N 34°03' W 119°18'714.2
2018-Aug-10 05:00N 34°05' W 119°26'816.2
2018-Aug-10 04:30N 34°07' W 119°35'816.1
2018-Aug-10 04:00N 34°09' W 119°45'816.2
2018-Aug-10 03:30N 34°11' W 119°54'815.4
2018-Aug-10 03:00N 34°13' W 120°03'816.0
2018-Aug-10 02:30N 34°15' W 120°12'815.8
2018-Aug-10 02:00N 34°17' W 120°22'816.0
2018-Aug-10 01:30N 34°19' W 120°31'816.4
2018-Aug-10 01:00N 34°21' W 120°41'816.2
2018-Aug-10 00:30N 34°23' W 120°50'816.1
2018-Aug-10 00:00N 34°27' W 120°59'816.3
2018-Aug-09 23:30N 34°32' W 121°07'511.2
2018-Aug-09 23:01N 34°35' W 121°13'816.0
2018-Aug-09 22:30N 34°39' W 121°21'815.9
2018-Aug-09 22:00N 34°43' W 121°29'815.9
2018-Aug-09 21:30N 34°47' W 121°38'816.5
2018-Aug-09 21:00N 34°51' W 121°46'816.4
2018-Aug-09 20:30N 34°55' W 121°55'816.4
2018-Aug-09 20:00N 34°60' W 122°03'816.5
2018-Aug-09 19:30N 35°04' W 122°12'816.1
2018-Aug-09 19:00N 35°08' W 122°21'816.2
2018-Aug-09 18:29N 35°13' W 122°29'816.1
2018-Aug-09 17:59N 35°17' W 122°38'815.9
2018-Aug-09 17:30N 35°21' W 122°46'816.0
2018-Aug-09 17:00N 35°25' W 122°54'816.3
2018-Aug-09 16:30N 35°29' W 123°02'816.9
2018-Aug-09 16:00N 35°33' W 123°12'917.8
2018-Aug-09 15:30N 35°38' W 123°21'917.7
2018-Aug-09 15:00N 35°43' W 123°30'917.5
2018-Aug-09 14:30N 35°47' W 123°39'917.5
2018-Aug-09 14:00N 35°52' W 123°48'917.6
2018-Aug-09 13:30N 35°56' W 123°58'1417.7
2018-Aug-09 12:44N 36°04' W 124°12'517.7
2018-Aug-09 12:29N 36°06' W 124°17'917.7
2018-Aug-09 12:00N 36°11' W 124°26'917.8
2018-Aug-09 11:30N 36°15' W 124°35'1617.8
2018-Aug-09 10:38N 36°23' W 124°51'217.7
2018-Aug-09 10:30N 36°24' W 124°54'918.0
2018-Aug-09 10:00N 36°29' W 125°03'917.9
2018-Aug-09 09:31N 36°34' W 125°13'917.7
2018-Aug-09 09:00N 36°38' W 125°22'917.9
2018-Aug-09 08:30N 36°43' W 125°32'917.8
2018-Aug-09 08:00N 36°48' W 125°41'917.9
2018-Aug-09 07:31N 36°52' W 125°51'917.9
2018-Aug-09 07:01N 36°57' W 126°01'917.7
2018-Aug-09 06:30N 37°02' W 126°10'917.5
2018-Aug-09 06:00N 37°06' W 126°19'917.4
2018-Aug-09 05:30N 37°11' W 126°29'917.1
2018-Aug-09 04:58N 37°15' W 126°38'1916.1
2018-Aug-09 03:48N 37°25' W 126°59'1016.2
2018-Aug-09 03:12N 37°30' W 127°09'316.0
2018-Aug-09 03:00N 37°32' W 127°13'2115.8
2018-Aug-09 01:41N 37°43' W 127°35'315.6
2018-Aug-09 01:30N 37°44' W 127°38'816.4
2018-Aug-09 01:00N 37°48' W 127°48'1616.4
2018-Aug-09 00:00N 37°57' W 128°05'3316.5
2018-Aug-08 21:59N 38°14' W 128°41'2717.0
2018-Aug-08 20:25N 38°28' W 129°10'  
Track history (hours):
 
Tides and Currents Weather Stations Pressure Air Temp Water Temp Dewpoint Dewpoint Depression Visibility Wind Speed Wind Dir Waves Ship Positions

BrusseLS Bridge

Last reported at 2018-Aug-17 05:19 UTC. Time now 2018-Aug-19 22:50 UTC.
Position N 41°05' W 130°21'.

Length 267 m; draft 9.3 m.

Type: Cargo ship. MMSI: 354362000.

Date/timePositionNaut miles runAvg speedWind from/ knotsBaromVisibWave heightAir tempDewpointWater temp
2018-Aug-17 05:19N 41°05' W 130°21'3615.9
2018-Aug-17 03:03N 40°41' W 129°45'1316.0
2018-Aug-17 02:15N 40°32' W 129°33'416.0
2018-Aug-17 01:59N 40°29' W 129°29'4515.8
2018-Aug-16 23:08N 40°00' W 128°44'215.8
2018-Aug-16 22:59N 39°59' W 128°41'22016.1
2018-Aug-16 09:17N 38°30' W 124°21'415.4
2018-Aug-16 09:00N 38°28' W 124°16'815.1
2018-Aug-16 08:30N 38°25' W 124°07'815.1
2018-Aug-16 08:00N 38°22' W 123°58'815.6
2018-Aug-16 07:30N 38°20' W 123°49'815.8
2018-Aug-16 07:00N 38°16' W 123°40'815.7
2018-Aug-16 06:30N 38°13' W 123°31'815.6
2018-Aug-16 06:00N 38°10' W 123°22'510.0
2018-Aug-16 05:30N 38°06' W 123°17'5 9.6
2018-Aug-16 05:00N 38°03' W 123°13'5 9.7
2018-Aug-16 04:29N 37°59' W 123°08'4 9.4
2018-Aug-16 04:00N 37°57' W 123°04'5 9.8
2018-Aug-16 03:30N 37°54' W 122°58'5 9.9
2018-Aug-16 03:00N 37°52' W 122°53'5 9.7
2018-Aug-16 02:30N 37°49' W 122°48'5 9.6
2018-Aug-16 02:00N 37°47' W 122°42'5 9.2
2018-Aug-16 01:30N 37°46' W 122°37'815.5
2018-Aug-16 01:00N 37°50' W 122°28'611.5
2018-Aug-16 00:30N 37°48' W 122°21'1 1.7
2018-Aug-15 23:59N 37°49' W 122°20'0 0.0
2018-Aug-15 23:26N 37°49' W 122°20'0 0.0
2018-Aug-15 22:59N 37°49' W 122°20'0 0.0
2018-Aug-15 22:26N 37°49' W 122°20'0 0.0
2018-Aug-15 21:56N 37°49' W 122°20'0 0.0
2018-Aug-15 21:26N 37°49' W 122°20'0 0.0
2018-Aug-15 20:56N 37°49' W 122°20'0 0.0
2018-Aug-15 20:29N 37°49' W 122°20'0 0.0
2018-Aug-15 19:56N 37°49' W 122°20'0 0.0
2018-Aug-15 19:26N 37°49' W 122°20'0 0.0
2018-Aug-15 18:56N 37°49' W 122°20'0 0.0
2018-Aug-15 18:29N 37°49' W 122°20'0 0.0
2018-Aug-15 17:59N 37°49' W 122°20'0 0.0
2018-Aug-15 17:26N 37°49' W 122°20'0 0.0
2018-Aug-15 16:59N 37°49' W 122°20'0 0.0
2018-Aug-15 16:20N 37°49' W 122°20'0 0.0
2018-Aug-15 15:56N 37°49' W 122°20'0 0.0
2018-Aug-15 15:29N 37°49' W 122°20'0 0.0
2018-Aug-15 14:59N 37°49' W 122°20'0 0.0
2018-Aug-15 14:29N 37°49' W 122°20'0 0.0
2018-Aug-15 13:59N 37°49' W 122°20'0 0.0
2018-Aug-15 13:29N 37°49' W 122°20'0 0.0
2018-Aug-15 12:59N 37°49' W 122°20'0 0.0
2018-Aug-15 12:29N 37°49' W 122°20'0 0.0
2018-Aug-15 11:59N 37°49' W 122°20'0 0.0
2018-Aug-15 11:29N 37°49' W 122°20'0 0.0
2018-Aug-15 10:59N 37°49' W 122°20'0 0.0
2018-Aug-15 10:26N 37°49' W 122°20'0 0.0
2018-Aug-15 09:59N 37°49' W 122°20'0 0.0
2018-Aug-15 09:29N 37°49' W 122°20'0 0.0
2018-Aug-15 08:59N 37°49' W 122°20'0 0.0
2018-Aug-15 08:26N 37°49' W 122°20'0 0.0
2018-Aug-15 07:56N 37°49' W 122°20'0 0.0
2018-Aug-15 07:29N 37°49' W 122°20'0 0.0
2018-Aug-15 06:56N 37°49' W 122°20'0 0.0
2018-Aug-15 06:29N 37°49' W 122°20'0 0.0
2018-Aug-15 05:59N 37°49' W 122°20'0 0.0
2018-Aug-15 05:29N 37°49' W 122°20'0 0.0
2018-Aug-15 04:56N 37°49' W 122°20'0 0.0
2018-Aug-15 04:26N 37°49' W 122°20'0 0.0
2018-Aug-15 03:53N 37°49' W 122°20'0 0.0
2018-Aug-15 03:29N 37°49' W 122°20'0 0.0
2018-Aug-15 02:59N 37°49' W 122°20'0 0.0
2018-Aug-15 02:29N 37°49' W 122°20'0 0.0
2018-Aug-15 01:53N 37°49' W 122°20'0 0.0
2018-Aug-15 01:29N 37°49' W 122°20'0 0.0
2018-Aug-15 00:56N 37°49' W 122°20'0 0.0
2018-Aug-15 00:26N 37°49' W 122°20'0 0.0
2018-Aug-14 23:56N 37°49' W 122°20'0 0.0
2018-Aug-14 23:29N 37°49' W 122°20'0 0.0
2018-Aug-14 22:59N 37°49' W 122°20'0 0.0
2018-Aug-14 22:30N 37°49' W 122°20'2 4.6
2018-Aug-14 22:00N 37°49' W 122°23'714.7
2018-Aug-14 21:30N 37°48' W 122°32'815.0
2018-Aug-14 21:00N 37°45' W 122°41'5 9.2
2018-Aug-14 20:30N 37°40' W 122°40'5 9.4
2018-Aug-14 20:00N 37°35' W 122°39'5 9.9
2018-Aug-14 19:30N 37°30' W 122°39'5 9.5
2018-Aug-14 19:00N 37°26' W 122°39'5 9.5
2018-Aug-14 18:30N 37°21' W 122°39'510.2
2018-Aug-14 18:00N 37°16' W 122°40'2 4.2
2018-Aug-14 17:30N 37°14' W 122°39'611.7
2018-Aug-14 17:00N 37°08' W 122°39'714.4
2018-Aug-14 16:30N 37°01' W 122°39'714.2
2018-Aug-14 16:01N 36°54' W 122°38'713.8
2018-Aug-14 15:30N 36°47' W 122°38'612.0
2018-Aug-14 14:59N 36°41' W 122°38'611.4
2018-Aug-14 14:30N 36°35' W 122°35'611.9
2018-Aug-14 14:00N 36°30' W 122°32'612.4
2018-Aug-14 13:30N 36°24' W 122°29'612.3
2018-Aug-14 12:59N 36°19' W 122°26'612.0
2018-Aug-14 12:30N 36°13' W 122°23'911.6
2018-Aug-14 11:45N 36°05' W 122°19'411.1
2018-Aug-14 11:24N 36°02' W 122°17'511.0
2018-Aug-14 10:57N 35°57' W 122°14'511.0
2018-Aug-14 10:27N 35°52' W 122°11'511.4
2018-Aug-14 10:01N 35°48' W 122°07'611.9
2018-Aug-14 09:29N 35°43' W 122°02'911.8
2018-Aug-14 08:43N 35°36' W 121°56'311.9
2018-Aug-14 08:29N 35°34' W 121°54'611.9
2018-Aug-14 08:00N 35°29' W 121°49'612.2
2018-Aug-14 07:30N 35°24' W 121°45'611.9
2018-Aug-14 07:00N 35°20' W 121°40'611.5
2018-Aug-14 06:30N 35°15' W 121°36'611.7
2018-Aug-14 06:01N 35°10' W 121°32'611.4
2018-Aug-14 05:30N 35°06' W 121°28'611.6
2018-Aug-14 05:00N 35°01' W 121°23'611.8
2018-Aug-14 04:30N 34°56' W 121°19'611.8
2018-Aug-14 04:01N 34°52' W 121°15'611.4
2018-Aug-14 03:30N 34°47' W 121°11'611.7
2018-Aug-14 03:00N 34°42' W 121°06'611.8
2018-Aug-14 02:31N 34°38' W 121°02'611.1
2018-Aug-14 02:01N 34°33' W 120°58'611.2
2018-Aug-14 01:30N 34°29' W 120°54'510.8
2018-Aug-14 01:00N 34°26' W 120°48'611.9
2018-Aug-14 00:30N 34°24' W 120°41'611.7
2018-Aug-14 00:00N 34°22' W 120°35'611.8
2018-Aug-13 23:29N 34°21' W 120°27'611.9
2018-Aug-13 23:00N 34°19' W 120°21'611.6
2018-Aug-13 22:29N 34°18' W 120°14'612.1
2018-Aug-13 21:59N 34°16' W 120°07'612.2
2018-Aug-13 21:30N 34°15' W 119°60'611.7
2018-Aug-13 21:00N 34°13' W 119°53'612.1
2018-Aug-13 20:30N 34°11' W 119°46'612.6
2018-Aug-13 20:00N 34°10' W 119°39'612.9
2018-Aug-13 19:30N 34°08' W 119°31'713.1
2018-Aug-13 19:00N 34°07' W 119°24'613.0
2018-Aug-13 18:31N 34°05' W 119°16'611.8
2018-Aug-13 18:00N 34°02' W 119°10'611.1
2018-Aug-13 17:31N 33°59' W 119°04'611.0
2018-Aug-13 17:00N 33°56' W 118°58'611.1
2018-Aug-13 16:31N 33°54' W 118°52'511.0
2018-Aug-13 16:01N 33°51' W 118°47'611.1
2018-Aug-13 15:30N 33°48' W 118°41'611.1
2018-Aug-13 15:01N 33°45' W 118°35'611.0
2018-Aug-13 14:30N 33°43' W 118°29'511.0
2018-Aug-13 14:01N 33°40' W 118°24'510.9
2018-Aug-13 13:31N 33°38' W 118°18'5 9.9
2018-Aug-13 13:00N 33°39' W 118°12'5 9.1
2018-Aug-13 12:31N 33°44' W 118°11'1 2.3
2018-Aug-13 12:01N 33°45' W 118°12'0 0.4
2018-Aug-13 11:30N 33°45' W 118°12'0 0.0
2018-Aug-13 11:00N 33°45' W 118°12'0 0.0
2018-Aug-13 10:30N 33°45' W 118°12'0 0.0
2018-Aug-13 10:00N 33°45' W 118°12'0 0.0
2018-Aug-13 09:30N 33°45' W 118°12'0 0.0
2018-Aug-13 09:00N 33°45' W 118°12'0 0.0
2018-Aug-13 08:30N 33°45' W 118°12'0 0.1
2018-Aug-13 08:00N 33°45' W 118°12'0 0.0
2018-Aug-13 07:30N 33°45' W 118°12'0 0.0
2018-Aug-13 07:00N 33°45' W 118°12'0 0.0
2018-Aug-13 06:27N 33°45' W 118°12'0 0.0
2018-Aug-13 06:00N 33°45' W 118°12'0 0.1
2018-Aug-13 05:30N 33°45' W 118°12'0 0.0
2018-Aug-13 05:00N 33°45' W 118°12'0 0.0
2018-Aug-13 04:30N 33°45' W 118°12'0 0.0
2018-Aug-13 04:00N 33°45' W 118°12'0 0.0
2018-Aug-13 03:30N 33°45' W 118°12'0 0.0
2018-Aug-13 03:00N 33°45' W 118°12'0 0.0
2018-Aug-13 02:30N 33°45' W 118°12'0 0.1
2018-Aug-13 02:00N 33°45' W 118°12'0 0.1
2018-Aug-13 01:30N 33°45' W 118°12'0 0.0
2018-Aug-13 01:00N 33°45' W 118°12'0 0.0
2018-Aug-13 00:30N 33°45' W 118°12'0 0.0
2018-Aug-13 00:00N 33°45' W 118°12'0 0.0
2018-Aug-12 23:30N 33°45' W 118°12'0 0.1
2018-Aug-12 23:00N 33°45' W 118°12'0 0.1
2018-Aug-12 22:30N 33°45' W 118°12'0 0.0
2018-Aug-12 22:00N 33°45' W 118°12'0 0.0
2018-Aug-12 21:30N 33°45' W 118°12'0 0.0
2018-Aug-12 21:00N 33°45' W 118°12'0 0.0
2018-Aug-12 20:30N 33°45' W 118°12'0 0.1
2018-Aug-12 20:00N 33°45' W 118°12'0 0.1
2018-Aug-12 19:30N 33°45' W 118°12'0 0.0
2018-Aug-12 18:57N 33°45' W 118°12'0 0.0
2018-Aug-12 18:30N 33°45' W 118°12'0 0.0
2018-Aug-12 18:00N 33°45' W 118°12'0 0.0
2018-Aug-12 17:30N 33°45' W 118°12'0 0.0
2018-Aug-12 17:00N 33°45' W 118°12'0 0.0
2018-Aug-12 16:30N 33°45' W 118°12'0 0.1
2018-Aug-12 16:00N 33°45' W 118°12'0 0.0
2018-Aug-12 15:30N 33°45' W 118°12'0 0.1
2018-Aug-12 15:00N 33°45' W 118°12'0 0.1
2018-Aug-12 14:30N 33°45' W 118°12'0 0.1
2018-Aug-12 14:00N 33°45' W 118°12'0 0.0
2018-Aug-12 13:30N 33°45' W 118°12'0 0.0
2018-Aug-12 13:00N 33°45' W 118°12'0 0.0
2018-Aug-12 12:30N 33°45' W 118°12'0 0.0
2018-Aug-12 11:57N 33°45' W 118°12'0 0.1
2018-Aug-12 11:30N 33°45' W 118°12'0 0.0
2018-Aug-12 11:00N 33°45' W 118°12'0 0.0
2018-Aug-12 10:30N 33°45' W 118°12'0 0.0
2018-Aug-12 10:00N 33°45' W 118°12'0 0.1
2018-Aug-12 09:30N 33°45' W 118°12'0 0.0
2018-Aug-12 09:00N 33°45' W 118°12'0 0.1
2018-Aug-12 08:30N 33°45' W 118°12'0 0.0
2018-Aug-12 08:00N 33°45' W 118°12'0 0.1
2018-Aug-12 07:30N 33°45' W 118°12'0 0.1
2018-Aug-12 07:00N 33°45' W 118°12'0 0.0
2018-Aug-12 06:30N 33°45' W 118°12'0 0.0
2018-Aug-12 06:00N 33°45' W 118°12'0 0.0
2018-Aug-12 05:30N 33°45' W 118°12'0 0.1
2018-Aug-12 05:00N 33°45' W 118°12'0 0.0
2018-Aug-12 04:30N 33°45' W 118°12'0 0.0
2018-Aug-12 04:00N 33°45' W 118°12'0 0.0
2018-Aug-12 03:30N 33°45' W 118°12'0 0.0
2018-Aug-12 03:00N 33°45' W 118°12'0 0.0
2018-Aug-12 02:27N 33°45' W 118°12'0 0.1
2018-Aug-12 02:00N 33°45' W 118°12'0 0.0
2018-Aug-12 01:30N 33°45' W 118°12'0 0.1
2018-Aug-12 01:00N 33°45' W 118°12'0 0.0
2018-Aug-12 00:30N 33°45' W 118°12'0 0.0
2018-Aug-12 00:00N 33°45' W 118°12'0 0.1
2018-Aug-11 23:30N 33°45' W 118°12'0 0.0
2018-Aug-11 23:00N 33°45' W 118°12'0 0.1
2018-Aug-11 22:30N 33°45' W 118°12'0 0.0
2018-Aug-11 22:00N 33°45' W 118°12'0 0.0
2018-Aug-11 21:30N 33°45' W 118°12'0 0.0
2018-Aug-11 21:00N 33°45' W 118°12'0 0.0
2018-Aug-11 20:30N 33°45' W 118°12'0 0.0
2018-Aug-11 20:00N 33°45' W 118°12'0 0.0
2018-Aug-11 19:30N 33°45' W 118°12'0 0.0
2018-Aug-11 19:00N 33°45' W 118°12'0 0.0
2018-Aug-11 18:30N 33°45' W 118°12'0 0.0
2018-Aug-11 18:00N 33°45' W 118°12'0 0.0
2018-Aug-11 17:30N 33°45' W 118°12'0 0.0
2018-Aug-11 17:00N 33°45' W 118°12'0 0.0
2018-Aug-11 16:30N 33°45' W 118°12'0 0.0
2018-Aug-11 16:00N 33°45' W 118°12'0 0.0
2018-Aug-11 15:30N 33°45' W 118°12'0 0.0
2018-Aug-11 15:00N 33°45' W 118°12'0 0.0
2018-Aug-11 14:30N 33°45' W 118°12'0 0.0
2018-Aug-11 14:00N 33°45' W 118°12'0 0.0
2018-Aug-11 13:30N 33°45' W 118°12'0 0.0
2018-Aug-11 12:57N 33°45' W 118°12'0 0.0
2018-Aug-11 12:30N 33°45' W 118°12'0 0.0
2018-Aug-11 12:00N 33°45' W 118°12'0 0.0
2018-Aug-11 11:30N 33°45' W 118°12'0 0.0
2018-Aug-11 11:00N 33°45' W 118°12'0 0.0
2018-Aug-11 10:30N 33°45' W 118°12'0 0.0
2018-Aug-11 10:00N 33°45' W 118°12'0 0.0
2018-Aug-11 09:30N 33°45' W 118°12'0 0.0
2018-Aug-11 09:00N 33°45' W 118°12'0 0.0
2018-Aug-11 08:30N 33°45' W 118°12'0 0.0
2018-Aug-11 08:00N 33°45' W 118°12'0 0.0
2018-Aug-11 07:30N 33°45' W 118°12'0 0.0
2018-Aug-11 07:00N 33°45' W 118°12'0 0.0
2018-Aug-11 06:30N 33°45' W 118°12'0 0.0
2018-Aug-11 06:00N 33°45' W 118°12'0 0.0
2018-Aug-11 05:30N 33°45' W 118°12'0 0.0
2018-Aug-11 05:00N 33°45' W 118°12'0 0.0
2018-Aug-11 04:30N 33°45' W 118°12'0 0.0
2018-Aug-11 04:00N 33°45' W 118°12'0 0.0
2018-Aug-11 03:30N 33°45' W 118°12'0 0.0
2018-Aug-11 03:00N 33°45' W 118°12'0 0.0
2018-Aug-11 02:30N 33°45' W 118°12'0 0.0
2018-Aug-11 02:00N 33°45' W 118°12'0 0.0
2018-Aug-11 01:30N 33°45' W 118°12'0 0.0
2018-Aug-11 01:00N 33°45' W 118°12'0 0.0
2018-Aug-11 00:30N 33°45' W 118°12'0 0.0
2018-Aug-11 00:00N 33°45' W 118°12'0 0.1
2018-Aug-10 23:30N 33°45' W 118°12'0 0.1
2018-Aug-10 23:00N 33°45' W 118°12'0 0.0
2018-Aug-10 22:30N 33°45' W 118°12'0 0.0
2018-Aug-10 22:00N 33°45' W 118°12'0 0.0
2018-Aug-10 21:30N 33°45' W 118°12'0 0.0
2018-Aug-10 21:00N 33°45' W 118°12'0 0.1
2018-Aug-10 20:30N 33°45' W 118°12'0 0.1
2018-Aug-10 20:00N 33°45' W 118°12'0 0.0
2018-Aug-10 19:30N 33°45' W 118°12'0 0.0
2018-Aug-10 19:00N 33°45' W 118°12'0 0.0
2018-Aug-10 18:30N 33°45' W 118°12'0 0.0
2018-Aug-10 18:00N 33°45' W 118°12'0 0.0
2018-Aug-10 17:30N 33°45' W 118°12'0 0.0
2018-Aug-10 17:00N 33°45' W 118°12'0 0.0
2018-Aug-10 16:30N 33°45' W 118°12'0 0.0
2018-Aug-10 16:00N 33°45' W 118°12'0 0.0
2018-Aug-10 15:30N 33°45' W 118°12'0 0.0
2018-Aug-10 15:00N 33°45' W 118°12'0 0.0
2018-Aug-10 14:30N 33°45' W 118°12'0 0.0
2018-Aug-10 14:00N 33°45' W 118°12'0 0.0
2018-Aug-10 13:30N 33°45' W 118°12'0 0.0
2018-Aug-10 13:00N 33°45' W 118°12'0 0.0
2018-Aug-10 12:30N 33°45' W 118°12'0 0.3
2018-Aug-10 12:00N 33°45' W 118°12'3 5.9
2018-Aug-10 11:30N 33°42' W 118°11'5 9.5
2018-Aug-10 11:00N 33°37' W 118°13'5 9.3
2018-Aug-10 10:30N 33°36' W 118°18'510.6
2018-Aug-10 10:00N 33°38' W 118°24'611.4
2018-Aug-10 09:30N 33°40' W 118°30'611.2
2018-Aug-10 09:00N 33°43' W 118°36'611.4
2018-Aug-10 08:30N 33°46' W 118°42'611.2
2018-Aug-10 08:00N 33°49' W 118°48'611.2
2018-Aug-10 07:30N 33°52' W 118°54'611.3
2018-Aug-10 07:00N 33°54' W 118°60'611.3
2018-Aug-10 06:30N 33°57' W 119°06'611.5
2018-Aug-10 06:00N 34°00' W 119°12'611.5
2018-Aug-10 05:30N 34°03' W 119°18'714.2
2018-Aug-10 05:00N 34°05' W 119°26'816.2
2018-Aug-10 04:30N 34°07' W 119°35'816.1
2018-Aug-10 04:00N 34°09' W 119°45'816.2
2018-Aug-10 03:30N 34°11' W 119°54'815.4
2018-Aug-10 03:00N 34°13' W 120°03'816.0
2018-Aug-10 02:30N 34°15' W 120°12'815.8
2018-Aug-10 02:00N 34°17' W 120°22'816.0
2018-Aug-10 01:30N 34°19' W 120°31'816.4
2018-Aug-10 01:00N 34°21' W 120°41'816.2
2018-Aug-10 00:30N 34°23' W 120°50'816.1
2018-Aug-10 00:00N 34°27' W 120°59'816.3
2018-Aug-09 23:30N 34°32' W 121°07'511.2
2018-Aug-09 23:01N 34°35' W 121°13'816.0
2018-Aug-09 22:30N 34°39' W 121°21'815.9
2018-Aug-09 22:00N 34°43' W 121°29'815.9
2018-Aug-09 21:30N 34°47' W 121°38'816.5
2018-Aug-09 21:00N 34°51' W 121°46'816.4
2018-Aug-09 20:30N 34°55' W 121°55'816.4
2018-Aug-09 20:00N 34°60' W 122°03'816.5
2018-Aug-09 19:30N 35°04' W 122°12'816.1
2018-Aug-09 19:00N 35°08' W 122°21'816.2
2018-Aug-09 18:29N 35°13' W 122°29'816.1
2018-Aug-09 17:59N 35°17' W 122°38'815.9
2018-Aug-09 17:30N 35°21' W 122°46'816.0
2018-Aug-09 17:00N 35°25' W 122°54'816.3
2018-Aug-09 16:30N 35°29' W 123°02'816.9
2018-Aug-09 16:00N 35°33' W 123°12'917.8
2018-Aug-09 15:30N 35°38' W 123°21'917.7
2018-Aug-09 15:00N 35°43' W 123°30'917.5
2018-Aug-09 14:30N 35°47' W 123°39'917.5
2018-Aug-09 14:00N 35°52' W 123°48'917.6
2018-Aug-09 13:30N 35°56' W 123°58'1417.7
2018-Aug-09 12:44N 36°04' W 124°12'517.7
2018-Aug-09 12:29N 36°06' W 124°17'917.7
2018-Aug-09 12:00N 36°11' W 124°26'917.8
2018-Aug-09 11:30N 36°15' W 124°35'1617.8
2018-Aug-09 10:38N 36°23' W 124°51'217.7
2018-Aug-09 10:30N 36°24' W 124°54'918.0
2018-Aug-09 10:00N 36°29' W 125°03'917.9
2018-Aug-09 09:31N 36°34' W 125°13'917.7
2018-Aug-09 09:00N 36°38' W 125°22'917.9
2018-Aug-09 08:30N 36°43' W 125°32'917.8
2018-Aug-09 08:00N 36°48' W 125°41'917.9
2018-Aug-09 07:31N 36°52' W 125°51'917.9
2018-Aug-09 07:01N 36°57' W 126°01'917.7
2018-Aug-09 06:30N 37°02' W 126°10'917.5
2018-Aug-09 06:00N 37°06' W 126°19'917.4
2018-Aug-09 05:30N 37°11' W 126°29'917.1
2018-Aug-09 04:58N 37°15' W 126°38'1916.1
2018-Aug-09 03:48N 37°25' W 126°59'1016.2
2018-Aug-09 03:12N 37°30' W 127°09'316.0
2018-Aug-09 03:00N 37°32' W 127°13'2115.8
2018-Aug-09 01:41N 37°43' W 127°35'315.6
2018-Aug-09 01:30N 37°44' W 127°38'816.4
2018-Aug-09 01:00N 37°48' W 127°48'1616.4
2018-Aug-09 00:00N 37°57' W 128°05'3316.5
2018-Aug-08 21:59N 38°14' W 128°41'2717.0
2018-Aug-08 20:25N 38°28' W 129°10'  

Dump ship's entire track history